sensor_id;sensor_type;location;lat;lon;timestamp;P1;durP1;ratioP1;P2;durP2;ratioP2
60973;SDS011;46846;51.528;5.076;2023-07-09T00:01:58;437.25;;;415.65;;
60973;SDS011;46846;51.528;5.076;2023-07-09T00:04:24;445.35;;;423.42;;
60973;SDS011;46846;51.528;5.076;2023-07-09T00:06:49;435.88;;;414.33;;
60973;SDS011;46846;51.528;5.076;2023-07-09T00:09:16;438.27;;;416.65;;
60973;SDS011;46846;51.528;5.076;2023-07-09T00:11:44;450.08;;;427.58;;
60973;SDS011;46846;51.528;5.076;2023-07-09T00:14:11;450.38;;;428.23;;
60973;SDS011;46846;51.528;5.076;2023-07-09T00:16:38;438.65;;;417.02;;
60973;SDS011;46846;51.528;5.076;2023-07-09T00:19:05;446.95;;;424.90;;
60973;SDS011;46846;51.528;5.076;2023-07-09T00:21:38;435.55;;;414.10;;
60973;SDS011;46846;51.528;5.076;2023-07-09T00:24:06;437.10;;;415.50;;
60973;SDS011;46846;51.528;5.076;2023-07-09T00:26:32;461.55;;;438.88;;
60973;SDS011;46846;51.528;5.076;2023-07-09T00:28:58;439.88;;;418.05;;
60973;SDS011;46846;51.528;5.076;2023-07-09T00:31:24;447.80;;;425.65;;
60973;SDS011;46846;51.528;5.076;2023-07-09T00:33:50;431.27;;;409.77;;
60973;SDS011;46846;51.528;5.076;2023-07-09T00:36:16;434.55;;;412.88;;
60973;SDS011;46846;51.528;5.076;2023-07-09T00:38:48;433.98;;;412.40;;
60973;SDS011;46846;51.528;5.076;2023-07-09T00:41:19;433.05;;;411.38;;
60973;SDS011;46846;51.528;5.076;2023-07-09T00:43:47;437.42;;;415.65;;
60973;SDS011;46846;51.528;5.076;2023-07-09T00:49:09;448.73;;;426.05;;
60973;SDS011;46846;51.528;5.076;2023-07-09T00:51:39;433.55;;;411.95;;
60973;SDS011;46846;51.528;5.076;2023-07-09T00:54:11;445.52;;;422.73;;
60973;SDS011;46846;51.528;5.076;2023-07-09T00:56:44;431.58;;;409.80;;
60973;SDS011;46846;51.528;5.076;2023-07-09T00:59:13;451.98;;;429.75;;
60973;SDS011;46846;51.528;5.076;2023-07-09T01:01:43;432.88;;;411.48;;
60973;SDS011;46846;51.528;5.076;2023-07-09T01:04:12;431.20;;;409.88;;
60973;SDS011;46846;51.528;5.076;2023-07-09T01:06:45;436.35;;;414.65;;
60973;SDS011;46846;51.528;5.076;2023-07-09T01:09:14;441.27;;;419.10;;
60973;SDS011;46846;51.528;5.076;2023-07-09T01:11:40;445.27;;;423.23;;
60973;SDS011;46846;51.528;5.076;2023-07-09T01:14:06;428.27;;;406.60;;
60973;SDS011;46846;51.528;5.076;2023-07-09T01:16:36;431.08;;;409.48;;
60973;SDS011;46846;51.528;5.076;2023-07-09T01:19:05;419.63;;;398.15;;
60973;SDS011;46846;51.528;5.076;2023-07-09T01:21:31;427.02;;;405.13;;
60973;SDS011;46846;51.528;5.076;2023-07-09T01:23:57;449.85;;;427.75;;
60973;SDS011;46846;51.528;5.076;2023-07-09T01:26:25;433.73;;;411.48;;
60973;SDS011;46846;51.528;5.076;2023-07-09T01:28:53;431.00;;;409.52;;
60973;SDS011;46846;51.528;5.076;2023-07-09T01:31:19;425.02;;;402.48;;
60973;SDS011;46846;51.528;5.076;2023-07-09T01:33:45;420.77;;;398.85;;
60973;SDS011;46846;51.528;5.076;2023-07-09T01:36:16;442.33;;;418.52;;
60973;SDS011;46846;51.528;5.076;2023-07-09T01:38:45;423.52;;;401.23;;
60973;SDS011;46846;51.528;5.076;2023-07-09T01:41:11;430.33;;;407.83;;
60973;SDS011;46846;51.528;5.076;2023-07-09T01:43:38;433.77;;;411.33;;
60973;SDS011;46846;51.528;5.076;2023-07-09T01:46:06;422.45;;;400.48;;
60973;SDS011;46846;51.528;5.076;2023-07-09T01:48:33;436.05;;;413.77;;
60973;SDS011;46846;51.528;5.076;2023-07-09T01:51:06;413.27;;;392.13;;
60973;SDS011;46846;51.528;5.076;2023-07-09T01:53:34;449.98;;;427.23;;
60973;SDS011;46846;51.528;5.076;2023-07-09T01:56:01;424.27;;;402.23;;
60973;SDS011;46846;51.528;5.076;2023-07-09T01:58:27;443.80;;;420.25;;
60973;SDS011;46846;51.528;5.076;2023-07-09T02:00:56;425.10;;;403.63;;
60973;SDS011;46846;51.528;5.076;2023-07-09T02:03:22;433.55;;;411.70;;
60973;SDS011;46846;51.528;5.076;2023-07-09T02:05:50;424.40;;;401.92;;
60973;SDS011;46846;51.528;5.076;2023-07-09T02:08:19;421.60;;;400.00;;
60973;SDS011;46846;51.528;5.076;2023-07-09T02:10:45;420.90;;;398.48;;
60973;SDS011;46846;51.528;5.076;2023-07-09T02:13:14;436.42;;;413.50;;
60973;SDS011;46846;51.528;5.076;2023-07-09T02:15:39;428.60;;;406.27;;
60973;SDS011;46846;51.528;5.076;2023-07-09T02:18:08;414.23;;;391.50;;
60973;SDS011;46846;51.528;5.076;2023-07-09T02:20:37;417.17;;;393.02;;
60973;SDS011;46846;51.528;5.076;2023-07-09T02:23:03;417.52;;;395.40;;
60973;SDS011;46846;51.528;5.076;2023-07-09T02:25:29;431.02;;;407.25;;
60973;SDS011;46846;51.528;5.076;2023-07-09T02:27:54;413.63;;;390.73;;
60973;SDS011;46846;51.528;5.076;2023-07-09T02:30:19;422.85;;;400.05;;
60973;SDS011;46846;51.528;5.076;2023-07-09T02:32:45;422.67;;;400.35;;
60973;SDS011;46846;51.528;5.076;2023-07-09T02:35:11;425.60;;;401.55;;
60973;SDS011;46846;51.528;5.076;2023-07-09T02:37:36;400.85;;;376.85;;
60973;SDS011;46846;51.528;5.076;2023-07-09T02:40:02;413.13;;;390.25;;
60973;SDS011;46846;51.528;5.076;2023-07-09T02:42:29;422.30;;;399.23;;
60973;SDS011;46846;51.528;5.076;2023-07-09T02:44:54;409.45;;;387.48;;
60973;SDS011;46846;51.528;5.076;2023-07-09T02:47:20;424.70;;;401.13;;
60973;SDS011;46846;51.528;5.076;2023-07-09T02:49:45;421.20;;;397.13;;
60973;SDS011;46846;51.528;5.076;2023-07-09T02:52:10;413.70;;;391.25;;
60973;SDS011;46846;51.528;5.076;2023-07-09T02:54:36;421.95;;;398.63;;
60973;SDS011;46846;51.528;5.076;2023-07-09T02:57:01;421.33;;;398.85;;
60973;SDS011;46846;51.528;5.076;2023-07-09T02:59:27;429.58;;;407.30;;
60973;SDS011;46846;51.528;5.076;2023-07-09T03:01:54;412.77;;;391.00;;
60973;SDS011;46846;51.528;5.076;2023-07-09T03:04:21;405.85;;;384.65;;
60973;SDS011;46846;51.528;5.076;2023-07-09T03:06:46;401.85;;;380.20;;
60973;SDS011;46846;51.528;5.076;2023-07-09T03:09:12;414.48;;;391.27;;
60973;SDS011;46846;51.528;5.076;2023-07-09T03:11:37;397.13;;;375.85;;
60973;SDS011;46846;51.528;5.076;2023-07-09T03:14:03;405.30;;;384.55;;
60973;SDS011;46846;51.528;5.076;2023-07-09T03:16:29;412.77;;;390.85;;
60973;SDS011;46846;51.528;5.076;2023-07-09T03:18:56;410.48;;;389.02;;
60973;SDS011;46846;51.528;5.076;2023-07-09T03:21:23;406.75;;;385.60;;
60973;SDS011;46846;51.528;5.076;2023-07-09T03:23:49;414.40;;;392.98;;
60973;SDS011;46846;51.528;5.076;2023-07-09T03:26:15;429.77;;;407.98;;
60973;SDS011;46846;51.528;5.076;2023-07-09T03:28:41;421.50;;;398.88;;
60973;SDS011;46846;51.528;5.076;2023-07-09T03:31:06;395.10;;;374.73;;
60973;SDS011;46846;51.528;5.076;2023-07-09T03:33:32;424.02;;;402.52;;
60973;SDS011;46846;51.528;5.076;2023-07-09T03:35:58;417.35;;;396.42;;
60973;SDS011;46846;51.528;5.076;2023-07-09T03:38:23;414.88;;;393.65;;
60973;SDS011;46846;51.528;5.076;2023-07-09T03:40:49;405.88;;;384.88;;
60973;SDS011;46846;51.528;5.076;2023-07-09T03:43:16;407.55;;;386.08;;
60973;SDS011;46846;51.528;5.076;2023-07-09T03:45:43;419.95;;;397.83;;
60973;SDS011;46846;51.528;5.076;2023-07-09T03:48:10;420.70;;;398.02;;
60973;SDS011;46846;51.528;5.076;2023-07-09T03:50:36;417.42;;;395.10;;
60973;SDS011;46846;51.528;5.076;2023-07-09T03:53:01;417.10;;;395.05;;
60973;SDS011;46846;51.528;5.076;2023-07-09T03:55:27;418.38;;;396.30;;
60973;SDS011;46846;51.528;5.076;2023-07-09T03:57:55;404.88;;;383.40;;
60973;SDS011;46846;51.528;5.076;2023-07-09T04:00:21;405.80;;;384.45;;
60973;SDS011;46846;51.528;5.076;2023-07-09T04:02:47;408.35;;;386.98;;
60973;SDS011;46846;51.528;5.076;2023-07-09T04:05:13;410.88;;;389.23;;
60973;SDS011;46846;51.528;5.076;2023-07-09T04:07:39;393.30;;;371.05;;
60973;SDS011;46846;51.528;5.076;2023-07-09T04:10:05;402.05;;;379.75;;
60973;SDS011;46846;51.528;5.076;2023-07-09T04:12:31;407.52;;;385.70;;
60973;SDS011;46846;51.528;5.076;2023-07-09T04:14:57;417.92;;;396.33;;
60973;SDS011;46846;51.528;5.076;2023-07-09T04:17:22;405.08;;;383.13;;
60973;SDS011;46846;51.528;5.076;2023-07-09T04:19:48;414.98;;;392.42;;
60973;SDS011;46846;51.528;5.076;2023-07-09T04:22:16;405.83;;;384.55;;
60973;SDS011;46846;51.528;5.076;2023-07-09T04:24:42;390.40;;;368.83;;
60973;SDS011;46846;51.528;5.076;2023-07-09T04:27:08;406.65;;;385.08;;
60973;SDS011;46846;51.528;5.076;2023-07-09T04:29:33;403.15;;;381.98;;
60973;SDS011;46846;51.528;5.076;2023-07-09T04:32:00;409.45;;;388.58;;
60973;SDS011;46846;51.528;5.076;2023-07-09T04:34:26;413.77;;;391.40;;
60973;SDS011;46846;51.528;5.076;2023-07-09T04:36:51;385.40;;;365.35;;
60973;SDS011;46846;51.528;5.076;2023-07-09T04:39:17;400.08;;;378.85;;
60973;SDS011;46846;51.528;5.076;2023-07-09T04:41:42;406.55;;;385.77;;
60973;SDS011;46846;51.528;5.076;2023-07-09T04:44:08;412.48;;;390.95;;
60973;SDS011;46846;51.528;5.076;2023-07-09T04:46:33;393.83;;;372.77;;
60973;SDS011;46846;51.528;5.076;2023-07-09T04:48:59;397.33;;;376.65;;
60973;SDS011;46846;51.528;5.076;2023-07-09T04:51:25;401.27;;;379.23;;
60973;SDS011;46846;51.528;5.076;2023-07-09T04:53:50;402.55;;;381.42;;
60973;SDS011;46846;51.528;5.076;2023-07-09T04:56:16;394.60;;;374.05;;
60973;SDS011;46846;51.528;5.076;2023-07-09T04:58:42;409.17;;;387.98;;
60973;SDS011;46846;51.528;5.076;2023-07-09T05:01:08;401.80;;;380.95;;
60973;SDS011;46846;51.528;5.076;2023-07-09T05:03:33;398.35;;;377.75;;
60973;SDS011;46846;51.528;5.076;2023-07-09T05:05:58;387.58;;;366.85;;
60973;SDS011;46846;51.528;5.076;2023-07-09T05:08:24;395.27;;;373.52;;
60973;SDS011;46846;51.528;5.076;2023-07-09T05:10:50;413.58;;;391.20;;
60973;SDS011;46846;51.528;5.076;2023-07-09T05:13:17;376.48;;;356.80;;
60973;SDS011;46846;51.528;5.076;2023-07-09T05:15:44;395.08;;;374.42;;
60973;SDS011;46846;51.528;5.076;2023-07-09T05:18:11;407.98;;;386.42;;
60973;SDS011;46846;51.528;5.076;2023-07-09T05:20:37;401.42;;;381.10;;
60973;SDS011;46846;51.528;5.076;2023-07-09T05:23:03;393.02;;;372.58;;
60973;SDS011;46846;51.528;5.076;2023-07-09T05:25:29;395.48;;;375.00;;
60973;SDS011;46846;51.528;5.076;2023-07-09T05:27:54;395.63;;;375.08;;
60973;SDS011;46846;51.528;5.076;2023-07-09T05:30:20;401.77;;;381.17;;
60973;SDS011;46846;51.528;5.076;2023-07-09T05:32:46;401.55;;;381.08;;
60973;SDS011;46846;51.528;5.076;2023-07-09T05:35:12;394.80;;;374.30;;
60973;SDS011;46846;51.528;5.076;2023-07-09T05:37:38;386.70;;;366.77;;
60973;SDS011;46846;51.528;5.076;2023-07-09T05:40:04;396.67;;;376.15;;
60973;SDS011;46846;51.528;5.076;2023-07-09T05:42:31;393.42;;;373.13;;
60973;SDS011;46846;51.528;5.076;2023-07-09T05:44:56;409.17;;;387.95;;
60973;SDS011;46846;51.528;5.076;2023-07-09T05:47:23;392.58;;;372.35;;
60973;SDS011;46846;51.528;5.076;2023-07-09T05:49:49;398.25;;;378.17;;
60973;SDS011;46846;51.528;5.076;2023-07-09T05:52:16;392.17;;;372.25;;
60973;SDS011;46846;51.528;5.076;2023-07-09T05:54:42;384.10;;;364.52;;
60973;SDS011;46846;51.528;5.076;2023-07-09T05:57:08;403.13;;;382.50;;
60973;SDS011;46846;51.528;5.076;2023-07-09T05:59:33;405.13;;;384.60;;
60973;SDS011;46846;51.528;5.076;2023-07-09T06:01:59;394.55;;;374.25;;
60973;SDS011;46846;51.528;5.076;2023-07-09T06:04:26;391.77;;;371.40;;
60973;SDS011;46846;51.528;5.076;2023-07-09T06:06:51;385.63;;;365.92;;
60973;SDS011;46846;51.528;5.076;2023-07-09T06:09:17;399.50;;;379.20;;
60973;SDS011;46846;51.528;5.076;2023-07-09T06:11:43;393.80;;;373.67;;
60973;SDS011;46846;51.528;5.076;2023-07-09T06:14:09;390.63;;;370.70;;
60973;SDS011;46846;51.528;5.076;2023-07-09T06:16:34;385.13;;;365.27;;
60973;SDS011;46846;51.528;5.076;2023-07-09T06:19:00;408.25;;;387.63;;
60973;SDS011;46846;51.528;5.076;2023-07-09T06:21:25;394.00;;;373.13;;
60973;SDS011;46846;51.528;5.076;2023-07-09T06:23:51;391.40;;;371.48;;
60973;SDS011;46846;51.528;5.076;2023-07-09T06:26:16;393.45;;;373.55;;
60973;SDS011;46846;51.528;5.076;2023-07-09T06:28:41;398.20;;;378.05;;
60973;SDS011;46846;51.528;5.076;2023-07-09T06:31:07;391.13;;;371.33;;
60973;SDS011;46846;51.528;5.076;2023-07-09T06:33:32;394.30;;;374.42;;
60973;SDS011;46846;51.528;5.076;2023-07-09T06:36:00;386.58;;;366.95;;
60973;SDS011;46846;51.528;5.076;2023-07-09T06:38:27;375.00;;;355.48;;
60973;SDS011;46846;51.528;5.076;2023-07-09T06:40:53;396.63;;;376.30;;
60973;SDS011;46846;51.528;5.076;2023-07-09T06:43:19;399.83;;;379.45;;
60973;SDS011;46846;51.528;5.076;2023-07-09T06:48:16;399.75;;;378.92;;
60973;SDS011;46846;51.528;5.076;2023-07-09T06:50:42;403.75;;;382.80;;
60973;SDS011;46846;51.528;5.076;2023-07-09T06:53:07;389.67;;;369.85;;
60973;SDS011;46846;51.528;5.076;2023-07-09T06:55:34;374.75;;;355.60;;
60973;SDS011;46846;51.528;5.076;2023-07-09T06:58:00;380.17;;;360.77;;
60973;SDS011;46846;51.528;5.076;2023-07-09T07:00:25;388.15;;;368.15;;
60973;SDS011;46846;51.528;5.076;2023-07-09T07:02:51;394.20;;;374.35;;
60973;SDS011;46846;51.528;5.076;2023-07-09T07:05:16;387.85;;;368.10;;
60973;SDS011;46846;51.528;5.076;2023-07-09T07:07:43;395.60;;;375.25;;
60973;SDS011;46846;51.528;5.076;2023-07-09T07:10:09;408.63;;;388.02;;
60973;SDS011;46846;51.528;5.076;2023-07-09T07:12:42;395.95;;;375.98;;
60973;SDS011;46846;51.528;5.076;2023-07-09T07:15:09;406.65;;;386.25;;
60973;SDS011;46846;51.528;5.076;2023-07-09T07:17:36;394.30;;;374.20;;
60973;SDS011;46846;51.528;5.076;2023-07-09T07:20:01;416.05;;;394.98;;
60973;SDS011;46846;51.528;5.076;2023-07-09T07:22:27;396.98;;;376.67;;
60973;SDS011;46846;51.528;5.076;2023-07-09T07:24:52;404.67;;;384.02;;
60973;SDS011;46846;51.528;5.076;2023-07-09T07:27:18;399.25;;;378.88;;
60973;SDS011;46846;51.528;5.076;2023-07-09T07:29:43;416.98;;;396.20;;
60973;SDS011;46846;51.528;5.076;2023-07-09T07:32:10;418.33;;;397.33;;
60973;SDS011;46846;51.528;5.076;2023-07-09T07:34:36;407.27;;;387.02;;
60973;SDS011;46846;51.528;5.076;2023-07-09T07:37:01;411.98;;;391.25;;
60973;SDS011;46846;51.528;5.076;2023-07-09T07:39:26;408.17;;;387.75;;
60973;SDS011;46846;51.528;5.076;2023-07-09T07:41:52;406.25;;;385.80;;
60973;SDS011;46846;51.528;5.076;2023-07-09T07:44:17;397.05;;;377.20;;
60973;SDS011;46846;51.528;5.076;2023-07-09T07:46:43;397.15;;;377.35;;
60973;SDS011;46846;51.528;5.076;2023-07-09T07:49:09;407.88;;;387.52;;
60973;SDS011;46846;51.528;5.076;2023-07-09T07:51:35;420.02;;;398.95;;
60973;SDS011;46846;51.528;5.076;2023-07-09T07:54:00;423.00;;;401.15;;
60973;SDS011;46846;51.528;5.076;2023-07-09T07:56:26;408.13;;;387.77;;
60973;SDS011;46846;51.528;5.076;2023-07-09T07:58:51;428.10;;;407.15;;
60973;SDS011;46846;51.528;5.076;2023-07-09T08:01:17;408.23;;;387.92;;
60973;SDS011;46846;51.528;5.076;2023-07-09T08:03:42;405.45;;;385.00;;
60973;SDS011;46846;51.528;5.076;2023-07-09T08:06:07;426.48;;;405.05;;
60973;SDS011;46846;51.528;5.076;2023-07-09T08:08:33;421.25;;;400.13;;
60973;SDS011;46846;51.528;5.076;2023-07-09T08:11:05;414.80;;;394.10;;
60973;SDS011;46846;51.528;5.076;2023-07-09T08:13:35;419.37;;;398.60;;
60973;SDS011;46846;51.528;5.076;2023-07-09T08:16:03;422.02;;;401.17;;
60973;SDS011;46846;51.528;5.076;2023-07-09T08:18:29;427.25;;;406.10;;
60973;SDS011;46846;51.528;5.076;2023-07-09T08:20:55;423.45;;;402.75;;
60973;SDS011;46846;51.528;5.076;2023-07-09T08:23:20;432.02;;;410.63;;
60973;SDS011;46846;51.528;5.076;2023-07-09T08:25:52;422.65;;;401.63;;
60973;SDS011;46846;51.528;5.076;2023-07-09T08:28:18;418.30;;;396.08;;
60973;SDS011;46846;51.528;5.076;2023-07-09T08:30:44;423.83;;;402.75;;
60973;SDS011;46846;51.528;5.076;2023-07-09T08:33:09;427.30;;;406.30;;
60973;SDS011;46846;51.528;5.076;2023-07-09T08:35:35;421.05;;;399.48;;
60973;SDS011;46846;51.528;5.076;2023-07-09T08:38:00;426.10;;;404.95;;
60973;SDS011;46846;51.528;5.076;2023-07-09T08:40:26;434.42;;;413.13;;
60973;SDS011;46846;51.528;5.076;2023-07-09T08:42:52;421.63;;;400.70;;
60973;SDS011;46846;51.528;5.076;2023-07-09T08:48:23;427.42;;;406.02;;
60973;SDS011;46846;51.528;5.076;2023-07-09T08:50:54;435.02;;;412.83;;
60973;SDS011;46846;51.528;5.076;2023-07-09T08:55:53;422.08;;;401.00;;
60973;SDS011;46846;51.528;5.076;2023-07-09T08:58:25;427.25;;;406.15;;
60973;SDS011;46846;51.528;5.076;2023-07-09T09:03:37;445.65;;;423.83;;
60973;SDS011;46846;51.528;5.076;2023-07-09T09:06:10;420.15;;;399.52;;
60973;SDS011;46846;51.528;5.076;2023-07-09T09:08:42;441.00;;;418.87;;
60973;SDS011;46846;51.528;5.076;2023-07-09T09:11:20;445.00;;;422.77;;
60973;SDS011;46846;51.528;5.076;2023-07-09T09:13:52;446.23;;;422.20;;
60973;SDS011;46846;51.528;5.076;2023-07-09T09:16:22;443.55;;;420.48;;
60973;SDS011;46846;51.528;5.076;2023-07-09T09:18:52;450.35;;;427.08;;
60973;SDS011;46846;51.528;5.076;2023-07-09T09:21:26;446.10;;;423.48;;
60973;SDS011;46846;51.528;5.076;2023-07-09T09:23:57;442.63;;;419.50;;
60973;SDS011;46846;51.528;5.076;2023-07-09T09:26:28;440.08;;;418.20;;
60973;SDS011;46846;51.528;5.076;2023-07-09T09:28:57;439.52;;;417.45;;
60973;SDS011;46846;51.528;5.076;2023-07-09T09:31:24;454.45;;;431.70;;
60973;SDS011;46846;51.528;5.076;2023-07-09T09:33:51;462.80;;;439.80;;
60973;SDS011;46846;51.528;5.076;2023-07-09T09:36:21;444.55;;;422.42;;
60973;SDS011;46846;51.528;5.076;2023-07-09T09:38:50;450.92;;;428.65;;
60973;SDS011;46846;51.528;5.076;2023-07-09T09:41:17;452.35;;;429.70;;
60973;SDS011;46846;51.528;5.076;2023-07-09T09:43:45;442.08;;;420.35;;
60973;SDS011;46846;51.528;5.076;2023-07-09T09:46:18;456.65;;;433.85;;
60973;SDS011;46846;51.528;5.076;2023-07-09T09:48:47;447.63;;;424.92;;
60973;SDS011;46846;51.528;5.076;2023-07-09T09:51:14;469.17;;;445.95;;
60973;SDS011;46846;51.528;5.076;2023-07-09T09:53:41;448.52;;;426.00;;
60973;SDS011;46846;51.528;5.076;2023-07-09T09:56:14;465.58;;;442.67;;
60973;SDS011;46846;51.528;5.076;2023-07-09T09:58:43;471.15;;;447.85;;
60973;SDS011;46846;51.528;5.076;2023-07-09T10:01:16;462.05;;;438.35;;
60973;SDS011;46846;51.528;5.076;2023-07-09T10:03:43;461.58;;;438.77;;
60973;SDS011;46846;51.528;5.076;2023-07-09T10:06:17;455.05;;;432.35;;
60973;SDS011;46846;51.528;5.076;2023-07-09T10:08:56;462.15;;;439.15;;
60973;SDS011;46846;51.528;5.076;2023-07-09T10:14:26;458.38;;;435.75;;
60973;SDS011;46846;51.528;5.076;2023-07-09T10:17:05;463.70;;;439.98;;
60973;SDS011;46846;51.528;5.076;2023-07-09T10:19:47;455.02;;;432.33;;
60973;SDS011;46846;51.528;5.076;2023-07-09T10:22:40;477.77;;;454.20;;
60973;SDS011;46846;51.528;5.076;2023-07-09T10:30:39;478.48;;;454.40;;
60973;SDS011;46846;51.528;5.076;2023-07-09T10:33:12;470.48;;;447.33;;
60973;SDS011;46846;51.528;5.076;2023-07-09T10:35:49;473.60;;;449.90;;
60973;SDS011;46846;51.528;5.076;2023-07-09T10:38:35;486.13;;;461.55;;
60973;SDS011;46846;51.528;5.076;2023-07-09T10:41:03;480.25;;;456.73;;
60973;SDS011;46846;51.528;5.076;2023-07-09T10:43:38;484.08;;;460.48;;
60973;SDS011;46846;51.528;5.076;2023-07-09T10:46:19;483.00;;;459.25;;
60973;SDS011;46846;51.528;5.076;2023-07-09T10:48:53;473.13;;;449.90;;
60973;SDS011;46846;51.528;5.076;2023-07-09T10:51:26;481.48;;;457.65;;
60973;SDS011;46846;51.528;5.076;2023-07-09T10:54:10;474.58;;;450.92;;
60973;SDS011;46846;51.528;5.076;2023-07-09T10:56:43;474.15;;;450.63;;
60973;SDS011;46846;51.528;5.076;2023-07-09T11:04:36;480.00;;;456.48;;
60973;SDS011;46846;51.528;5.076;2023-07-09T11:07:09;481.50;;;457.95;;
60973;SDS011;46846;51.528;5.076;2023-07-09T11:09:40;477.52;;;454.27;;
60973;SDS011;46846;51.528;5.076;2023-07-09T11:12:10;480.00;;;456.63;;
60973;SDS011;46846;51.528;5.076;2023-07-09T11:14:40;502.42;;;477.75;;
60973;SDS011;46846;51.528;5.076;2023-07-09T11:17:15;478.70;;;455.25;;
60973;SDS011;46846;51.528;5.076;2023-07-09T11:19:54;489.05;;;464.17;;
60973;SDS011;46846;51.528;5.076;2023-07-09T11:22:35;474.55;;;450.70;;
60973;SDS011;46846;51.528;5.076;2023-07-09T11:25:07;484.92;;;460.80;;
60973;SDS011;46846;51.528;5.076;2023-07-09T11:30:19;486.33;;;462.10;;
60973;SDS011;46846;51.528;5.076;2023-07-09T11:32:54;494.45;;;469.70;;
60973;SDS011;46846;51.528;5.076;2023-07-09T11:35:24;501.75;;;476.92;;
60973;SDS011;46846;51.528;5.076;2023-07-09T11:38:15;484.95;;;460.95;;
60973;SDS011;46846;51.528;5.076;2023-07-09T11:40:49;482.45;;;458.85;;
60973;SDS011;46846;51.528;5.076;2023-07-09T11:43:26;467.00;;;444.00;;
60973;SDS011;46846;51.528;5.076;2023-07-09T11:45:53;490.08;;;465.67;;
60973;SDS011;46846;51.528;5.076;2023-07-09T11:50:55;493.80;;;468.88;;
60973;SDS011;46846;51.528;5.076;2023-07-09T11:53:28;489.45;;;465.20;;
60973;SDS011;46846;51.528;5.076;2023-07-09T11:55:54;490.73;;;466.58;;
60973;SDS011;46846;51.528;5.076;2023-07-09T11:58:20;488.67;;;464.38;;
60973;SDS011;46846;51.528;5.076;2023-07-09T12:00:46;495.25;;;470.58;;
60973;SDS011;46846;51.528;5.076;2023-07-09T12:03:15;494.20;;;469.77;;
60973;SDS011;46846;51.528;5.076;2023-07-09T12:05:50;482.70;;;458.77;;
60973;SDS011;46846;51.528;5.076;2023-07-09T12:08:18;485.63;;;461.58;;
60973;SDS011;46846;51.528;5.076;2023-07-09T12:14:08;485.33;;;461.13;;
60973;SDS011;46846;51.528;5.076;2023-07-09T12:16:39;504.55;;;479.58;;
60973;SDS011;46846;51.528;5.076;2023-07-09T12:19:08;486.30;;;462.10;;
60973;SDS011;46846;51.528;5.076;2023-07-09T12:21:37;475.67;;;451.73;;
60973;SDS011;46846;51.528;5.076;2023-07-09T12:24:03;483.77;;;459.60;;
60973;SDS011;46846;51.528;5.076;2023-07-09T12:26:43;481.35;;;457.05;;
60973;SDS011;46846;51.528;5.076;2023-07-09T12:29:08;477.45;;;453.85;;
60973;SDS011;46846;51.528;5.076;2023-07-09T12:31:35;492.40;;;468.02;;
60973;SDS011;46846;51.528;5.076;2023-07-09T12:34:00;487.98;;;464.02;;
60973;SDS011;46846;51.528;5.076;2023-07-09T12:36:26;482.83;;;458.80;;
60973;SDS011;46846;51.528;5.076;2023-07-09T12:38:56;484.70;;;460.70;;
60973;SDS011;46846;51.528;5.076;2023-07-09T12:41:27;490.88;;;466.58;;
60973;SDS011;46846;51.528;5.076;2023-07-09T12:43:57;487.20;;;462.90;;
60973;SDS011;46846;51.528;5.076;2023-07-09T12:46:23;479.70;;;455.70;;
60973;SDS011;46846;51.528;5.076;2023-07-09T12:48:49;475.95;;;452.30;;
60973;SDS011;46846;51.528;5.076;2023-07-09T12:51:25;470.98;;;447.52;;
60973;SDS011;46846;51.528;5.076;2023-07-09T12:54:05;484.27;;;460.58;;
60973;SDS011;46846;51.528;5.076;2023-07-09T12:56:38;473.52;;;449.98;;
60973;SDS011;46846;51.528;5.076;2023-07-09T12:59:15;474.02;;;450.63;;
60973;SDS011;46846;51.528;5.076;2023-07-09T13:01:41;486.92;;;463.08;;
60973;SDS011;46846;51.528;5.076;2023-07-09T13:04:07;474.45;;;450.70;;
60973;SDS011;46846;51.528;5.076;2023-07-09T13:06:38;494.02;;;469.80;;
60973;SDS011;46846;51.528;5.076;2023-07-09T13:09:19;478.77;;;455.35;;
60973;SDS011;46846;51.528;5.076;2023-07-09T13:11:46;489.02;;;465.15;;
60973;SDS011;46846;51.528;5.076;2023-07-09T13:14:17;481.33;;;457.80;;
60973;SDS011;46846;51.528;5.076;2023-07-09T13:16:45;491.05;;;467.13;;
60973;SDS011;46846;51.528;5.076;2023-07-09T13:19:10;480.80;;;457.40;;
60973;SDS011;46846;51.528;5.076;2023-07-09T13:21:36;488.63;;;464.90;;
60973;SDS011;46846;51.528;5.076;2023-07-09T13:26:59;480.33;;;457.02;;
60973;SDS011;46846;51.528;5.076;2023-07-09T13:29:26;474.30;;;451.30;;
60973;SDS011;46846;51.528;5.076;2023-07-09T13:31:52;477.90;;;454.50;;
60973;SDS011;46846;51.528;5.076;2023-07-09T13:36:51;490.42;;;466.55;;
60973;SDS011;46846;51.528;5.076;2023-07-09T13:39:21;478.83;;;455.52;;
60973;SDS011;46846;51.528;5.076;2023-07-09T13:41:48;475.20;;;452.02;;
60973;SDS011;46846;51.528;5.076;2023-07-09T13:44:16;470.15;;;447.23;;
60973;SDS011;46846;51.528;5.076;2023-07-09T13:46:44;469.60;;;446.77;;
60973;SDS011;46846;51.528;5.076;2023-07-09T13:49:11;471.25;;;447.95;;
60973;SDS011;46846;51.528;5.076;2023-07-09T13:51:40;481.75;;;458.45;;
60973;SDS011;46846;51.528;5.076;2023-07-09T13:54:17;484.00;;;459.85;;
60973;SDS011;46846;51.528;5.076;2023-07-09T13:56:45;474.35;;;451.15;;
60973;SDS011;46846;51.528;5.076;2023-07-09T13:59:21;480.38;;;456.75;;
60973;SDS011;46846;51.528;5.076;2023-07-09T14:01:49;467.23;;;444.33;;
60973;SDS011;46846;51.528;5.076;2023-07-09T14:04:17;482.58;;;458.58;;
60973;SDS011;46846;51.528;5.076;2023-07-09T14:06:44;474.77;;;451.77;;
60973;SDS011;46846;51.528;5.076;2023-07-09T14:09:11;472.35;;;448.85;;
60973;SDS011;46846;51.528;5.076;2023-07-09T14:14:33;470.73;;;447.60;;
60973;SDS011;46846;51.528;5.076;2023-07-09T14:16:58;480.92;;;457.63;;
60973;SDS011;46846;51.528;5.076;2023-07-09T14:19:26;477.58;;;454.25;;
60973;SDS011;46846;51.528;5.076;2023-07-09T14:21:53;464.15;;;441.13;;
60973;SDS011;46846;51.528;5.076;2023-07-09T14:26:52;475.05;;;451.52;;
60973;SDS011;46846;51.528;5.076;2023-07-09T14:29:19;479.75;;;456.33;;
60973;SDS011;46846;51.528;5.076;2023-07-09T14:31:45;461.33;;;438.90;;
60973;SDS011;46846;51.528;5.076;2023-07-09T14:34:24;461.75;;;439.52;;
60973;SDS011;46846;51.528;5.076;2023-07-09T14:36:55;469.17;;;446.33;;
60973;SDS011;46846;51.528;5.076;2023-07-09T14:39:21;466.85;;;444.15;;
60973;SDS011;46846;51.528;5.076;2023-07-09T14:41:48;475.40;;;452.33;;
60973;SDS011;46846;51.528;5.076;2023-07-09T14:46:56;469.70;;;446.85;;
60973;SDS011;46846;51.528;5.076;2023-07-09T14:49:25;476.30;;;453.23;;
60973;SDS011;46846;51.528;5.076;2023-07-09T14:51:53;469.80;;;447.00;;